createdAt,value
2019-05-21T00:01:45.782Z,2.45
2019-05-21T00:04:27.490Z,2.70
2019-05-21T00:06:44.721Z,2.80
2019-05-21T00:09:13.363Z,2.80
2019-05-21T00:11:42.031Z,2.95
2019-05-21T00:14:10.681Z,3.17
2019-05-21T00:16:39.340Z,2.45
2019-05-21T00:19:08.055Z,2.40
2019-05-21T00:21:36.641Z,3.00
2019-05-21T00:24:05.261Z,2.42
2019-05-21T00:26:33.929Z,2.83
2019-05-21T00:29:20.315Z,2.72
2019-05-21T00:32:06.762Z,2.60
2019-05-21T00:34:53.264Z,2.70
2019-05-21T00:37:39.645Z,2.85
2019-05-21T00:40:26.250Z,3.10
2019-05-21T00:42:54.881Z,3.08
2019-05-21T00:45:23.484Z,3.00
2019-05-21T00:47:52.168Z,3.05
2019-05-21T00:50:20.909Z,3.12
2019-05-21T00:52:49.570Z,3.22
2019-05-21T00:55:18.170Z,3.02
2019-05-21T00:57:46.705Z,3.45
2019-05-21T01:00:15.596Z,3.33
2019-05-21T01:02:44.446Z,3.27
2019-05-21T01:05:13.050Z,3.30
2019-05-21T01:07:41.647Z,3.70
2019-05-21T01:10:10.283Z,3.27
2019-05-21T01:12:38.896Z,3.50
2019-05-21T01:15:07.653Z,3.42
2019-05-21T01:17:37.273Z,3.22
2019-05-21T01:20:05.905Z,3.50
2019-05-21T01:22:34.491Z,3.95
2019-05-21T01:25:03.071Z,3.58
2019-05-21T01:27:31.769Z,3.92
2019-05-21T01:30:00.333Z,4.08
2019-05-21T01:32:28.919Z,3.75
2019-05-21T01:34:57.473Z,3.83
2019-05-21T01:37:26.072Z,4.10
2019-05-21T01:39:54.661Z,4.08
2019-05-21T01:42:23.225Z,4.05
2019-05-21T01:44:51.852Z,4.03
2019-05-21T01:47:20.527Z,4.12
2019-05-21T01:49:49.248Z,4.17
2019-05-21T01:52:17.853Z,4.12
2019-05-21T01:54:46.482Z,4.20
2019-05-21T01:57:15.113Z,3.77
2019-05-21T01:59:43.704Z,4.00
2019-05-21T02:02:12.315Z,4.30
2019-05-21T02:04:40.931Z,4.60
2019-05-21T02:07:09.568Z,4.33
2019-05-21T02:09:57.483Z,5.20
2019-05-21T02:12:26.061Z,4.53
2019-05-21T02:14:54.766Z,4.83
2019-05-21T02:17:23.414Z,5.10
2019-05-21T02:19:52.054Z,4.80
2019-05-21T02:22:20.625Z,4.78
2019-05-21T02:24:49.249Z,4.78
2019-05-21T02:27:17.871Z,4.70
2019-05-21T02:29:46.457Z,5.03
2019-05-21T02:32:15.058Z,4.50
2019-05-21T02:34:43.591Z,4.40
2019-05-21T02:37:12.200Z,4.92
2019-05-21T02:39:40.786Z,5.20
2019-05-21T02:42:09.420Z,4.58
2019-05-21T02:44:38.090Z,4.90
2019-05-21T02:47:06.748Z,4.78
2019-05-21T02:49:35.352Z,4.72
2019-05-21T02:52:03.880Z,5.22
2019-05-21T02:54:41.026Z,4.83
2019-05-21T02:57:02.802Z,5.15
2019-05-21T02:59:31.406Z,4.85
2019-05-21T03:02:05.957Z,5.08
2019-05-21T03:04:34.500Z,5.17
2019-05-21T03:07:18.504Z,4.53
2019-05-21T03:09:47.890Z,5.67
2019-05-21T03:12:16.403Z,5.37
2019-05-21T03:14:44.980Z,5.50
2019-05-21T03:17:13.685Z,5.50
2019-05-21T03:19:42.228Z,5.45
2019-05-21T03:22:10.825Z,5.30
2019-05-21T03:24:39.460Z,5.17
2019-05-21T03:27:08.071Z,5.62
2019-05-21T03:29:36.724Z,5.53
2019-05-21T03:32:05.396Z,5.75
2019-05-21T03:34:34.069Z,5.47
2019-05-21T03:37:03.707Z,5.90
2019-05-21T03:39:32.414Z,5.25
2019-05-21T03:42:01.006Z,5.45
2019-05-21T03:44:29.659Z,5.70
2019-05-21T03:46:58.292Z,5.47
2019-05-21T03:49:27.900Z,5.55
2019-05-21T03:51:56.508Z,5.55
2019-05-21T03:54:25.273Z,6.10
2019-05-21T03:56:53.860Z,6.12
2019-05-21T03:59:22.528Z,5.90
2019-05-21T04:01:51.139Z,6.60
2019-05-21T04:04:19.671Z,6.25
2019-05-21T04:06:52.093Z,6.30
2019-05-21T04:09:18.535Z,6.47
2019-05-21T04:11:47.231Z,6.30
2019-05-21T04:14:31.185Z,6.55
2019-05-21T04:17:05.936Z,6.15
2019-05-21T04:19:37.209Z,6.78
2019-05-21T04:22:08.268Z,6.75
2019-05-21T04:24:36.889Z,6.65
2019-05-21T04:27:05.581Z,6.53
2019-05-21T04:29:34.100Z,6.78
2019-05-21T04:32:02.736Z,6.78
2019-05-21T04:34:31.393Z,6.92
2019-05-21T04:37:09.722Z,6.90
2019-05-21T04:39:30.444Z,6.72
2019-05-21T04:41:59.094Z,7.40
2019-05-21T04:44:27.734Z,6.90
2019-05-21T04:46:56.326Z,6.65
2019-05-21T04:49:24.955Z,7.45
2019-05-21T04:51:53.611Z,6.83
2019-05-21T04:54:22.248Z,6.85
2019-05-21T04:56:50.864Z,7.92
2019-05-21T04:59:19.478Z,7.28
2019-05-21T05:01:48.187Z,6.92
2019-05-21T05:04:21.487Z,7.40
2019-05-21T05:06:47.106Z,8.03
2019-05-21T05:09:15.675Z,7.20
2019-05-21T05:11:44.325Z,8.25
2019-05-21T05:14:13.912Z,7.80
2019-05-21T05:16:42.496Z,8.68
2019-05-21T05:19:11.026Z,8.40
2019-05-21T05:21:39.723Z,8.10
2019-05-21T05:24:08.401Z,7.90
2019-05-21T05:26:37.005Z,7.97
2019-05-21T05:29:05.541Z,7.58
2019-05-21T05:31:34.149Z,8.73
2019-05-21T05:34:02.779Z,8.93
2019-05-21T05:36:31.474Z,8.50
2019-05-21T05:39:00.241Z,9.78
2019-05-21T05:41:30.320Z,9.00
2019-05-21T05:44:00.032Z,8.98
2019-05-21T05:46:28.571Z,9.00
2019-05-21T05:49:06.109Z,9.53
2019-05-21T05:51:34.651Z,9.30
2019-05-21T05:54:03.279Z,9.65
2019-05-21T05:56:32.058Z,9.63
2019-05-21T05:59:00.697Z,9.78
2019-05-21T06:01:30.862Z,9.58
2019-05-21T06:03:59.644Z,9.18
2019-05-21T06:06:29.546Z,9.63
2019-05-21T06:08:58.248Z,9.80
2019-05-21T06:11:26.941Z,9.10
2019-05-21T06:13:55.753Z,9.58
2019-05-21T06:16:24.405Z,8.63
2019-05-21T06:18:53.095Z,10.08
2019-05-21T06:21:21.704Z,9.43
2019-05-21T06:23:50.284Z,9.10
2019-05-21T06:26:18.896Z,9.70
2019-05-21T06:28:47.487Z,10.30
2019-05-21T06:31:16.213Z,9.58
2019-05-21T06:33:44.806Z,9.05
2019-05-21T06:36:13.631Z,9.33
2019-05-21T06:38:42.383Z,9.48
2019-05-21T06:41:11.381Z,10.45
2019-05-21T06:43:40.365Z,9.55
2019-05-21T06:46:09.213Z,9.40
2019-05-21T06:48:38.163Z,9.95
2019-05-21T06:51:07.147Z,10.05
2019-05-21T06:53:35.945Z,9.93
2019-05-21T06:56:07.388Z,9.45
2019-05-21T06:58:35.043Z,10.30
2019-05-21T07:01:03.821Z,10.03
2019-05-21T07:03:32.541Z,10.48
2019-05-21T07:06:01.150Z,10.88
2019-05-21T07:08:34.473Z,9.75
2019-05-21T07:11:00.081Z,11.55
2019-05-21T07:13:30.999Z,10.20
2019-05-21T07:15:59.305Z,10.90
2019-05-21T07:18:27.901Z,9.85
2019-05-21T07:20:57.351Z,9.75
2019-05-21T07:23:27.207Z,10.08
2019-05-21T07:25:55.852Z,11.08
2019-05-21T07:28:24.491Z,9.85
2019-05-21T07:30:53.467Z,10.63
2019-05-21T07:33:22.077Z,11.20
2019-05-21T07:35:50.738Z,10.55
2019-05-21T07:38:19.347Z,11.35
2019-05-21T07:40:47.971Z,11.08
2019-05-21T07:43:16.613Z,10.78
2019-05-21T07:45:45.228Z,10.82
2019-05-21T07:48:13.864Z,11.40
2019-05-21T07:50:42.551Z,10.03
2019-05-21T07:53:11.236Z,11.68
2019-05-21T07:55:39.824Z,11.53
2019-05-21T07:58:08.557Z,11.75
2019-05-21T08:00:37.185Z,11.48
2019-05-21T08:03:05.759Z,12.07
2019-05-21T08:05:34.318Z,12.18
2019-05-21T08:08:03.173Z,12.13
2019-05-21T08:10:31.909Z,11.55
2019-05-21T08:13:00.576Z,11.65
2019-05-21T08:15:29.292Z,11.73
2019-05-21T08:17:57.935Z,11.28
2019-05-21T08:20:26.538Z,11.95
2019-05-21T08:22:55.269Z,11.43
2019-05-21T08:25:23.992Z,11.00
2019-05-21T08:27:52.530Z,10.15
2019-05-21T08:30:21.187Z,10.98
2019-05-21T08:32:49.718Z,10.70
2019-05-21T08:35:18.438Z,10.03
2019-05-21T08:37:47.066Z,10.82
2019-05-21T08:40:15.809Z,9.85
2019-05-21T08:42:44.349Z,10.35
2019-05-21T08:45:13.077Z,9.85
2019-05-21T08:47:41.706Z,9.43
2019-05-21T08:50:10.519Z,9.90
2019-05-21T08:52:39.167Z,9.88
2019-05-21T08:55:07.991Z,9.53
2019-05-21T08:57:36.677Z,10.35
2019-05-21T09:00:06.417Z,10.32
2019-05-21T09:02:35.127Z,9.83
2019-05-21T09:05:04.196Z,10.18
2019-05-21T09:07:32.825Z,10.00
2019-05-21T09:10:01.523Z,9.53
2019-05-21T09:12:30.087Z,9.05
2019-05-21T09:14:58.705Z,8.88
2019-05-21T09:17:27.419Z,8.83
2019-05-21T09:19:56.158Z,9.45
2019-05-21T09:22:24.863Z,8.53
2019-05-21T09:24:53.542Z,8.48
2019-05-21T09:27:22.281Z,8.63
2019-05-21T09:29:50.829Z,8.53
2019-05-21T09:32:20.495Z,8.23
2019-05-21T09:34:49.623Z,8.33
2019-05-21T09:37:20.093Z,7.50
2019-05-21T09:39:48.600Z,8.03
2019-05-21T09:42:18.316Z,7.95
2019-05-21T09:44:46.987Z,8.50
2019-05-21T09:47:16.592Z,8.25
2019-05-21T09:49:45.259Z,8.78
2019-05-21T09:52:13.885Z,8.40
2019-05-21T09:54:42.501Z,8.98
2019-05-21T09:57:13.166Z,8.70
2019-05-21T10:00:00.818Z,8.63
2019-05-21T10:02:31.204Z,8.38
2019-05-21T10:04:59.961Z,8.63
2019-05-21T10:07:38.980Z,8.18
2019-05-21T10:09:59.058Z,9.30
2019-05-21T10:12:27.810Z,9.60
2019-05-21T10:14:56.507Z,9.40
2019-05-21T10:17:25.088Z,8.90
2019-05-21T10:19:53.654Z,9.18
2019-05-21T10:22:22.269Z,8.80
2019-05-21T10:25:03.496Z,9.58
2019-05-21T10:27:32.009Z,8.55
2019-05-21T10:30:01.756Z,9.70
2019-05-21T10:32:31.703Z,9.50
2019-05-21T10:35:00.426Z,9.78
2019-05-21T10:37:29.232Z,9.20
2019-05-21T10:39:57.902Z,9.95
2019-05-21T10:42:26.560Z,9.25
2019-05-21T10:44:55.276Z,8.98
2019-05-21T10:47:23.808Z,9.18
2019-05-21T10:49:52.503Z,9.45
2019-05-21T10:52:21.088Z,9.70
2019-05-21T10:54:49.814Z,9.53
2019-05-21T10:57:18.564Z,9.33
2019-05-21T10:59:47.224Z,9.03
2019-05-21T11:02:28.176Z,9.45
2019-05-21T11:05:02.736Z,9.68
2019-05-21T11:07:31.401Z,10.25
2019-05-21T11:10:00.324Z,9.98
2019-05-21T11:12:28.992Z,10.55
2019-05-21T11:14:57.643Z,10.10
2019-05-21T11:17:26.295Z,9.53
2019-05-21T11:19:54.914Z,10.48
2019-05-21T11:22:23.662Z,10.98
2019-05-21T11:24:52.366Z,10.48
2019-05-21T11:27:21.037Z,10.45
2019-05-21T11:29:49.820Z,11.15
2019-05-21T11:32:18.431Z,10.93
2019-05-21T11:34:49.940Z,11.55
2019-05-21T11:37:17.579Z,10.85
2019-05-21T11:39:46.411Z,11.60
2019-05-21T11:42:15.019Z,10.18
2019-05-21T11:44:43.715Z,11.20
2019-05-21T11:47:12.403Z,12.00
2019-05-21T11:49:41.088Z,10.88
2019-05-21T11:52:09.932Z,11.50
2019-05-21T11:54:38.634Z,12.07
2019-05-21T11:57:08.228Z,11.45
2019-05-21T11:59:36.941Z,11.63
2019-05-21T12:02:07.787Z,12.37
2019-05-21T12:04:36.509Z,11.78
2019-05-21T12:07:05.367Z,12.50
2019-05-21T12:09:34.134Z,12.25
2019-05-21T12:12:02.873Z,12.30
2019-05-21T12:14:31.655Z,11.75
2019-05-21T12:17:00.511Z,12.07
2019-05-21T12:19:30.236Z,12.30
2019-05-21T12:21:59.051Z,13.68
2019-05-21T12:24:27.856Z,12.85
2019-05-21T12:26:56.563Z,12.53
2019-05-21T12:29:25.252Z,12.85
2019-05-21T12:31:54.104Z,12.37
2019-05-21T12:34:22.823Z,12.28
2019-05-21T12:36:51.636Z,12.88
2019-05-21T12:39:20.332Z,12.07
2019-05-21T12:41:48.985Z,12.15
2019-05-21T12:44:20.702Z,12.20
2019-05-21T12:46:49.353Z,10.40
2019-05-21T12:49:18.207Z,12.85
2019-05-21T12:51:46.873Z,10.80
2019-05-21T12:54:15.483Z,11.30
2019-05-21T12:56:44.183Z,11.48
2019-05-21T12:59:12.883Z,10.85
2019-05-21T13:01:41.534Z,9.93
2019-05-21T13:04:10.241Z,11.08
2019-05-21T13:06:38.891Z,10.65
2019-05-21T13:09:08.427Z,10.65
2019-05-21T13:11:37.400Z,10.78
2019-05-21T13:14:06.317Z,10.85
2019-05-21T13:16:35.039Z,10.80
2019-05-21T13:19:04.295Z,11.65
2019-05-21T13:21:33.072Z,10.85
2019-05-21T13:24:01.794Z,11.65
2019-05-21T13:26:30.509Z,11.80
2019-05-21T13:28:59.309Z,10.60
2019-05-21T13:31:28.458Z,11.60
2019-05-21T13:33:57.146Z,11.20
2019-05-21T13:36:25.847Z,11.15
2019-05-21T13:38:54.739Z,11.55
2019-05-21T13:41:23.668Z,11.60
2019-05-21T13:43:52.435Z,11.10
2019-05-21T13:46:21.518Z,11.10
2019-05-21T13:48:50.278Z,11.50
2019-05-21T13:51:18.986Z,11.93
2019-05-21T13:53:47.705Z,10.82
2019-05-21T13:56:16.563Z,12.03
2019-05-21T13:58:45.542Z,11.45
2019-05-21T14:01:16.020Z,10.80
2019-05-21T14:03:45.299Z,10.98
2019-05-21T14:06:14.283Z,11.15
2019-05-21T14:08:43.360Z,11.25
2019-05-21T14:11:12.172Z,10.95
2019-05-21T14:13:40.908Z,11.15
2019-05-21T14:16:09.619Z,12.37
2019-05-21T14:18:38.306Z,11.80
2019-05-21T14:21:07.071Z,11.08
2019-05-21T14:23:35.924Z,11.97
2019-05-21T14:26:04.914Z,12.43
2019-05-21T14:28:34.637Z,11.85
2019-05-21T14:31:03.635Z,12.60
2019-05-21T14:33:32.599Z,12.98
2019-05-21T14:36:01.298Z,11.95
2019-05-21T14:38:30.065Z,12.03
2019-05-21T14:40:59.193Z,12.37
2019-05-21T14:43:28.017Z,12.18
2019-05-21T14:45:56.790Z,12.82
2019-05-21T14:48:25.817Z,13.32
2019-05-21T14:50:54.736Z,13.38
2019-05-21T14:53:23.479Z,12.63
2019-05-21T14:55:52.205Z,12.98
2019-05-21T14:58:21.089Z,12.82
2019-05-21T15:00:50.006Z,12.75
2019-05-21T15:03:25.128Z,12.33
2019-05-21T15:05:49.226Z,13.18
2019-05-21T15:08:18.071Z,13.18
2019-05-21T15:10:48.862Z,13.38
2019-05-21T15:13:17.499Z,12.75
2019-05-21T15:15:46.541Z,12.40
2019-05-21T15:18:21.300Z,12.73
2019-05-21T15:20:54.381Z,12.28
2019-05-21T15:23:23.094Z,12.88
2019-05-21T15:25:51.769Z,12.43
2019-05-21T15:28:20.567Z,11.38
2019-05-21T15:30:49.279Z,11.83
2019-05-21T15:33:18.038Z,11.65
2019-05-21T15:35:46.900Z,10.32
2019-05-21T15:38:15.876Z,11.70
2019-05-21T15:40:45.146Z,10.48
2019-05-21T15:43:13.986Z,10.90
2019-05-21T15:45:43.208Z,10.20
2019-05-21T15:48:11.975Z,10.23
2019-05-21T15:50:40.735Z,10.20
2019-05-21T15:53:09.372Z,9.68
2019-05-21T15:55:38.473Z,9.33
2019-05-21T15:58:07.372Z,8.70
2019-05-21T16:00:36.487Z,8.90
2019-05-21T16:03:05.913Z,8.70
2019-05-21T16:05:35.172Z,9.03
2019-05-21T16:08:04.836Z,8.03
2019-05-21T16:10:34.046Z,7.67
2019-05-21T16:13:03.323Z,7.78
2019-05-21T16:15:32.204Z,8.55
2019-05-21T16:18:00.914Z,7.00
2019-05-21T16:20:30.054Z,7.53
2019-05-21T16:22:58.914Z,7.17
2019-05-21T16:25:27.994Z,7.53
2019-05-21T16:27:56.760Z,6.37
2019-05-21T16:30:25.543Z,6.25
2019-05-21T16:32:54.205Z,6.12
2019-05-21T16:35:22.944Z,6.40
2019-05-21T16:37:51.865Z,6.55
2019-05-21T16:40:20.854Z,6.22
2019-05-21T16:42:49.522Z,7.10
2019-05-21T16:45:18.671Z,7.15
2019-05-21T16:47:47.639Z,7.28
2019-05-21T16:50:16.481Z,7.40
2019-05-21T16:52:45.251Z,7.62
2019-05-21T16:55:14.299Z,7.22
2019-05-21T16:57:43.082Z,7.90
2019-05-21T17:00:13.702Z,7.78
2019-05-21T17:02:42.384Z,7.50
2019-05-21T17:05:12.092Z,7.17
2019-05-21T17:07:40.781Z,6.58
2019-05-21T17:10:09.765Z,7.28
2019-05-21T17:12:38.550Z,7.28
2019-05-21T17:15:26.773Z,6.58
2019-05-21T17:17:55.502Z,7.25
2019-05-21T17:20:24.508Z,7.17
2019-05-21T17:22:53.746Z,6.33
2019-05-21T17:25:22.597Z,7.05
2019-05-21T17:27:51.373Z,6.97
2019-05-21T17:30:20.525Z,6.83
2019-05-21T17:32:49.713Z,7.05
2019-05-21T17:35:18.621Z,7.20
2019-05-21T17:37:47.312Z,7.28
2019-05-21T17:40:16.112Z,7.17
2019-05-21T17:42:45.265Z,6.85
2019-05-21T17:45:14.272Z,6.55
2019-05-21T17:47:42.984Z,6.55
2019-05-21T17:50:11.766Z,6.42
2019-05-21T17:52:40.490Z,6.55
2019-05-21T17:55:10.286Z,6.28
2019-05-21T17:57:39.200Z,6.28
2019-05-21T18:00:08.225Z,6.22
2019-05-21T18:02:37.028Z,5.95
2019-05-21T18:05:07.399Z,6.10
2019-05-21T18:07:39.339Z,5.80
2019-05-21T18:10:08.628Z,5.70
2019-05-21T18:12:37.538Z,6.00
2019-05-21T18:15:07.709Z,5.50
2019-05-21T18:17:37.110Z,5.25
2019-05-21T18:20:07.842Z,5.37
2019-05-21T18:22:36.711Z,5.00
2019-05-21T18:25:05.894Z,5.10
2019-05-21T18:27:34.801Z,5.15
2019-05-21T18:30:05.644Z,4.53
2019-05-21T18:32:36.341Z,4.80
2019-05-21T18:35:05.434Z,4.67
2019-05-21T18:37:35.061Z,4.70
2019-05-21T18:40:04.753Z,4.45
2019-05-21T18:42:33.562Z,4.40
2019-05-21T18:45:02.417Z,4.47
2019-05-21T18:47:32.671Z,4.28
2019-05-21T18:50:01.549Z,4.17
2019-05-21T18:52:32.502Z,4.80
2019-05-21T18:55:01.311Z,3.83
2019-05-21T18:57:30.194Z,3.98
2019-05-21T18:59:59.361Z,3.70
2019-05-21T19:02:28.151Z,3.90
2019-05-21T19:04:57.028Z,3.62
2019-05-21T19:07:25.733Z,3.80
2019-05-21T19:09:54.504Z,3.85
2019-05-21T19:12:36.891Z,3.83
2019-05-21T19:14:55.523Z,4.10
2019-05-21T19:17:35.255Z,3.87
2019-05-21T19:19:54.806Z,3.87
2019-05-21T19:22:23.454Z,3.83
2019-05-21T19:24:52.428Z,4.08
2019-05-21T19:27:21.127Z,3.83
2019-05-21T19:29:49.892Z,4.58
2019-05-21T19:32:18.611Z,4.22
2019-05-21T19:34:47.293Z,4.20
2019-05-21T19:37:16.003Z,4.25
2019-05-21T19:39:44.727Z,4.72
2019-05-21T19:42:14.479Z,3.90
2019-05-21T19:44:43.281Z,4.50
2019-05-21T19:47:12.128Z,4.85
2019-05-21T19:49:40.781Z,4.08
2019-05-21T19:52:09.539Z,4.83
2019-05-21T19:54:38.516Z,4.40
2019-05-21T19:57:07.450Z,4.55
2019-05-21T19:59:36.208Z,4.55
2019-05-21T20:02:06.832Z,4.65
2019-05-21T20:04:36.157Z,4.67
2019-05-21T20:07:07.530Z,4.95
2019-05-21T20:09:37.826Z,5.10
2019-05-21T20:12:09.274Z,4.87
2019-05-21T20:14:38.130Z,4.50
2019-05-21T20:17:08.775Z,4.78
2019-05-21T20:19:37.989Z,4.50
2019-05-21T20:22:08.883Z,4.35
2019-05-21T20:24:38.916Z,4.00
2019-05-21T20:27:08.622Z,3.70
2019-05-21T20:29:37.674Z,3.25
2019-05-21T20:32:06.907Z,3.25
2019-05-21T20:34:35.976Z,3.35
2019-05-21T20:37:05.746Z,3.17
2019-05-21T20:39:37.093Z,3.10
2019-05-21T20:42:06.026Z,3.45
2019-05-21T20:44:34.783Z,3.17
2019-05-21T20:47:03.851Z,3.20
2019-05-21T20:49:32.468Z,3.85
2019-05-21T20:52:17.364Z,3.50
2019-05-21T20:54:33.329Z,3.40
2019-05-21T20:57:03.045Z,3.77
2019-05-21T20:59:31.659Z,4.20
2019-05-21T21:02:00.292Z,4.72
2019-05-21T21:04:29.678Z,4.53
2019-05-21T21:06:58.471Z,4.00
2019-05-21T21:09:27.545Z,4.42
2019-05-21T21:11:56.248Z,4.92
2019-05-21T21:14:26.225Z,4.75
2019-05-21T21:16:56.022Z,4.30
2019-05-21T21:19:24.763Z,4.00
2019-05-21T21:21:53.453Z,4.00
2019-05-21T21:24:22.085Z,4.00
2019-05-21T21:26:51.120Z,4.25
2019-05-21T21:29:20.005Z,3.45
2019-05-21T21:31:48.849Z,3.70
2019-05-21T21:34:18.006Z,3.52
2019-05-21T21:36:46.779Z,3.20
2019-05-21T21:39:15.573Z,3.55
2019-05-21T21:41:44.511Z,3.40
2019-05-21T21:44:13.502Z,3.52
2019-05-21T21:46:42.158Z,3.08
2019-05-21T21:49:12.356Z,3.40
2019-05-21T21:51:40.890Z,3.52
2019-05-21T21:54:11.339Z,3.50
2019-05-21T21:56:40.002Z,3.62
2019-05-21T21:59:08.747Z,3.60
2019-05-21T22:01:46.125Z,3.45
2019-05-21T22:04:16.736Z,3.87
2019-05-21T22:06:46.302Z,4.00
2019-05-21T22:09:21.106Z,3.95
2019-05-21T22:11:51.923Z,3.67
2019-05-21T22:14:20.732Z,3.37
2019-05-21T22:16:51.674Z,3.60
2019-05-21T22:19:21.387Z,3.70
2019-05-21T22:21:51.329Z,3.27
2019-05-21T22:24:20.074Z,3.50
2019-05-21T22:26:49.296Z,3.50
2019-05-21T22:29:18.077Z,3.00
2019-05-21T22:31:46.926Z,3.15
2019-05-21T22:34:15.660Z,2.83
2019-05-21T22:36:44.491Z,3.10
2019-05-21T22:39:19.794Z,3.50
2019-05-21T22:41:48.422Z,2.95
2019-05-21T22:44:17.162Z,3.00
2019-05-21T22:46:47.996Z,3.35
2019-05-21T22:49:16.865Z,3.20
2019-05-21T22:51:45.503Z,3.47
2019-05-21T22:54:14.132Z,3.52
2019-05-21T22:56:42.786Z,4.05
2019-05-21T22:59:11.885Z,4.10
2019-05-21T23:01:41.095Z,3.77
2019-05-21T23:04:10.191Z,4.30
2019-05-21T23:06:40.563Z,4.10
2019-05-21T23:09:09.236Z,4.10
2019-05-21T23:11:37.933Z,4.33
2019-05-21T23:14:06.617Z,4.30
2019-05-21T23:16:36.899Z,3.98
2019-05-21T23:19:08.540Z,4.53
2019-05-21T23:21:39.379Z,4.60
2019-05-21T23:24:13.051Z,4.90
2019-05-21T23:26:42.552Z,5.25
2019-05-21T23:29:11.649Z,5.25
2019-05-21T23:31:40.373Z,4.65
2019-05-21T23:34:10.174Z,4.90
2019-05-21T23:36:40.753Z,4.90
2019-05-21T23:39:15.028Z,4.60
2019-05-21T23:41:45.089Z,4.60
2019-05-21T23:44:14.326Z,4.95
2019-05-21T23:46:43.003Z,4.60
2019-05-21T23:49:11.547Z,4.70
2019-05-21T23:51:40.290Z,4.67
2019-05-21T23:54:08.895Z,4.85
2019-05-21T23:56:39.146Z,4.97
2019-05-21T23:59:07.764Z,5.17
